createdAt,value
2022-12-15T00:00:11.785Z,0.00
2022-12-15T00:01:11.856Z,0.00
2022-12-15T00:02:11.848Z,0.00
2022-12-15T00:03:11.909Z,0.00
2022-12-15T00:04:11.750Z,0.00
2022-12-15T00:05:11.742Z,0.00
2022-12-15T00:06:11.733Z,0.00
2022-12-15T00:07:11.727Z,0.00
2022-12-15T00:08:11.704Z,0.00
2022-12-15T00:09:14.456Z,0.00
2022-12-15T00:10:11.680Z,0.00
2022-12-15T00:11:11.681Z,0.00
2022-12-15T00:12:11.691Z,0.00
2022-12-15T00:13:11.649Z,0.00
2022-12-15T00:14:11.632Z,0.00
2022-12-15T00:15:11.628Z,0.00
2022-12-15T00:16:11.688Z,0.00
2022-12-15T00:17:11.631Z,0.00
2022-12-15T00:18:11.627Z,0.00
2022-12-15T00:19:11.582Z,0.00
2022-12-15T00:20:11.575Z,0.00
2022-12-15T00:21:11.568Z,0.00
2022-12-15T00:22:11.555Z,0.00
2022-12-15T00:23:11.571Z,0.00
2022-12-15T00:24:11.526Z,0.00
2022-12-15T00:25:11.525Z,0.00
2022-12-15T00:26:11.520Z,0.00
2022-12-15T00:27:11.512Z,0.00
2022-12-15T00:28:11.499Z,0.00
2022-12-15T00:29:11.476Z,0.00
2022-12-15T00:30:11.466Z,0.00
2022-12-15T00:31:11.490Z,0.00
2022-12-15T00:32:11.445Z,0.00
2022-12-15T00:33:11.469Z,0.00
2022-12-15T00:34:11.433Z,0.00
2022-12-15T00:35:11.415Z,0.00
2022-12-15T00:36:11.420Z,0.00
2022-12-15T00:37:11.395Z,0.00
2022-12-15T00:38:11.396Z,0.00
2022-12-15T00:39:11.374Z,0.00
2022-12-15T00:40:11.392Z,0.00
2022-12-15T00:41:11.349Z,0.00
2022-12-15T00:42:11.340Z,0.00
2022-12-15T00:43:11.328Z,0.00
2022-12-15T00:44:15.742Z,0.00
2022-12-15T00:45:12.308Z,0.00
2022-12-15T00:46:11.384Z,0.00
2022-12-15T00:47:11.285Z,0.00
2022-12-15T00:48:11.308Z,0.00
2022-12-15T00:49:11.294Z,0.00
2022-12-15T00:50:11.253Z,0.00
2022-12-15T00:51:11.295Z,0.00
2022-12-15T00:52:18.346Z,0.00
2022-12-15T00:53:11.222Z,0.00
2022-12-15T00:54:17.773Z,0.00
2022-12-15T00:55:12.202Z,0.00
2022-12-15T00:56:11.197Z,0.00
2022-12-15T00:57:11.199Z,0.00
2022-12-15T00:58:11.170Z,0.00
2022-12-15T00:59:11.172Z,0.00
2022-12-15T01:00:11.146Z,0.00
2022-12-15T01:01:11.136Z,0.00
2022-12-15T01:02:11.296Z,0.00
2022-12-15T01:03:11.380Z,0.00
2022-12-15T01:04:11.220Z,0.00
2022-12-15T01:05:11.116Z,0.00
2022-12-15T01:06:11.084Z,0.00
2022-12-15T01:07:11.091Z,0.00
2022-12-15T01:08:11.063Z,0.00
2022-12-15T01:09:11.082Z,0.00
2022-12-15T01:10:11.040Z,0.00
2022-12-15T01:11:11.027Z,0.00
2022-12-15T01:12:11.020Z,0.00
2022-12-15T01:13:11.006Z,0.00
2022-12-15T01:14:11.026Z,0.00
2022-12-15T01:15:10.987Z,0.00
2022-12-15T01:16:11.087Z,0.00
2022-12-15T01:17:10.960Z,0.00
2022-12-15T01:18:10.954Z,0.00
2022-12-15T01:19:10.953Z,0.00
2022-12-15T01:20:10.962Z,0.00
2022-12-15T01:21:10.954Z,0.00
2022-12-15T01:22:10.918Z,0.00
2022-12-15T01:23:10.907Z,0.00
2022-12-15T01:24:10.905Z,0.00
2022-12-15T01:25:10.900Z,0.00
2022-12-15T01:26:10.878Z,0.00
2022-12-15T01:27:10.860Z,0.00
2022-12-15T01:28:10.849Z,0.00
2022-12-15T01:29:10.856Z,0.00
2022-12-15T01:30:10.848Z,0.00
2022-12-15T01:31:10.867Z,0.00
2022-12-15T01:32:10.820Z,0.00
2022-12-15T01:33:10.854Z,0.00
2022-12-15T01:34:10.782Z,0.00
2022-12-15T01:35:10.786Z,0.00
2022-12-15T01:36:10.772Z,0.00
2022-12-15T01:37:10.777Z,0.00
2022-12-15T01:38:10.761Z,0.00
2022-12-15T01:39:10.729Z,0.00
2022-12-15T01:40:10.724Z,0.00
2022-12-15T01:41:10.717Z,0.00
2022-12-15T01:42:10.702Z,0.00
2022-12-15T01:43:10.685Z,0.00
2022-12-15T01:44:10.703Z,0.00
2022-12-15T01:45:10.666Z,0.00
2022-12-15T01:46:10.659Z,0.00
2022-12-15T01:47:10.715Z,0.00
2022-12-15T01:48:10.645Z,0.00
2022-12-15T01:49:10.630Z,0.00
2022-12-15T01:50:10.616Z,0.00
2022-12-15T01:51:10.617Z,0.00
2022-12-15T01:52:10.603Z,0.00
2022-12-15T01:53:10.610Z,0.00
2022-12-15T01:54:10.575Z,0.00
2022-12-15T01:55:10.575Z,0.00
2022-12-15T01:56:10.547Z,0.00
2022-12-15T01:57:10.544Z,0.00
2022-12-15T01:58:10.537Z,0.00
2022-12-15T01:59:10.525Z,0.00
2022-12-15T02:00:10.518Z,0.00
2022-12-15T02:01:10.607Z,0.00
2022-12-15T02:02:10.597Z,0.00
2022-12-15T02:03:10.588Z,0.00
2022-12-15T02:04:10.467Z,0.00
2022-12-15T02:05:10.451Z,0.00
2022-12-15T02:06:10.453Z,0.00
2022-12-15T02:07:10.426Z,0.00
2022-12-15T02:08:10.459Z,0.00
2022-12-15T02:09:10.456Z,0.00
2022-12-15T02:10:10.411Z,0.00
2022-12-15T02:11:10.385Z,0.00
2022-12-15T02:12:10.381Z,0.00
2022-12-15T02:13:10.373Z,0.00
2022-12-15T02:14:10.360Z,0.00
2022-12-15T02:15:10.351Z,0.00
2022-12-15T02:16:10.383Z,0.00
2022-12-15T02:17:10.333Z,0.00
2022-12-15T02:18:10.313Z,0.00
2022-12-15T02:19:10.348Z,0.00
2022-12-15T02:20:10.300Z,0.00
2022-12-15T02:21:10.274Z,0.00
2022-12-15T02:22:10.267Z,0.00
2022-12-15T02:23:10.257Z,0.00
2022-12-15T02:24:10.255Z,0.00
2022-12-15T02:25:10.269Z,0.00
2022-12-15T02:26:10.227Z,0.00
2022-12-15T02:27:10.210Z,0.00
2022-12-15T02:28:10.204Z,0.00
2022-12-15T02:29:10.227Z,0.00
2022-12-15T02:30:10.181Z,0.00
2022-12-15T02:31:10.282Z,0.00
2022-12-15T02:32:10.229Z,0.00
2022-12-15T02:33:10.154Z,0.00
2022-12-15T02:34:10.141Z,0.00
2022-12-15T02:35:10.130Z,0.00
2022-12-15T02:36:10.125Z,0.00
2022-12-15T02:37:10.112Z,0.00
2022-12-15T02:38:10.100Z,0.00
2022-12-15T02:39:10.097Z,0.00
2022-12-15T02:40:10.079Z,0.00
2022-12-15T02:41:10.211Z,0.00
2022-12-15T02:42:10.057Z,0.00
2022-12-15T02:43:10.043Z,0.00
2022-12-15T02:44:10.037Z,0.00
2022-12-15T02:45:10.098Z,0.00
2022-12-15T02:46:10.047Z,0.00
2022-12-15T02:47:10.020Z,0.00
2022-12-15T02:48:09.988Z,0.00
2022-12-15T02:49:09.992Z,0.00
2022-12-15T02:50:09.966Z,0.00
2022-12-15T02:51:09.953Z,0.00
2022-12-15T02:52:09.972Z,0.00
2022-12-15T02:53:09.937Z,0.00
2022-12-15T02:54:09.926Z,0.00
2022-12-15T02:55:09.918Z,0.00
2022-12-15T02:56:09.905Z,0.00
2022-12-15T02:57:09.922Z,0.00
2022-12-15T02:58:09.899Z,0.00
2022-12-15T02:59:09.896Z,0.00
2022-12-15T03:00:09.871Z,0.00
2022-12-15T03:01:09.914Z,0.00
2022-12-15T03:02:10.017Z,0.00
2022-12-15T03:03:09.890Z,0.00
2022-12-15T03:04:09.830Z,0.00
2022-12-15T03:05:09.805Z,0.00
2022-12-15T03:06:09.796Z,0.00
2022-12-15T03:07:09.825Z,0.00
2022-12-15T03:08:09.774Z,0.00
2022-12-15T03:09:09.761Z,0.00
2022-12-15T03:10:09.752Z,0.00
2022-12-15T03:11:09.738Z,0.00
2022-12-15T03:12:09.757Z,0.00
2022-12-15T03:13:09.748Z,0.00
2022-12-15T03:14:09.712Z,0.00
2022-12-15T03:15:09.694Z,0.00
2022-12-15T03:16:09.709Z,0.00
2022-12-15T03:17:09.675Z,0.00
2022-12-15T03:18:09.671Z,0.00
2022-12-15T03:19:09.659Z,0.00
2022-12-15T03:20:09.645Z,0.00
2022-12-15T03:21:09.629Z,0.00
2022-12-15T03:22:09.631Z,0.00
2022-12-15T03:23:09.615Z,0.00
2022-12-15T03:24:09.603Z,0.00
2022-12-15T03:25:09.598Z,0.00
2022-12-15T03:26:09.580Z,0.00
2022-12-15T03:27:09.564Z,0.00
2022-12-15T03:28:09.572Z,0.00
2022-12-15T03:29:09.570Z,0.00
2022-12-15T03:30:09.541Z,0.00
2022-12-15T03:31:09.535Z,0.00
2022-12-15T03:32:09.568Z,0.00
2022-12-15T03:33:09.502Z,0.00
2022-12-15T03:34:09.501Z,0.00
2022-12-15T03:35:09.478Z,0.00
2022-12-15T03:36:09.477Z,0.00
2022-12-15T03:37:09.482Z,0.00
2022-12-15T03:38:09.451Z,0.00
2022-12-15T03:39:09.446Z,0.00
2022-12-15T03:40:09.426Z,0.00
2022-12-15T03:41:09.417Z,0.00
2022-12-15T03:42:09.405Z,0.00
2022-12-15T03:43:09.423Z,0.00
2022-12-15T03:44:09.402Z,0.00
2022-12-15T03:45:09.398Z,0.00
2022-12-15T03:46:09.489Z,0.00
2022-12-15T03:47:09.352Z,0.00
2022-12-15T03:48:09.342Z,0.00
2022-12-15T03:49:09.358Z,0.00
2022-12-15T03:50:09.322Z,0.00
2022-12-15T03:51:09.306Z,0.00
2022-12-15T03:52:09.297Z,0.00
2022-12-15T03:53:09.296Z,0.00
2022-12-15T03:54:09.294Z,0.00
2022-12-15T03:55:09.278Z,0.00
2022-12-15T03:56:09.253Z,0.00
2022-12-15T03:57:09.241Z,0.00
2022-12-15T03:58:09.239Z,0.00
2022-12-15T03:59:09.261Z,0.00
2022-12-15T04:00:09.217Z,0.00
2022-12-15T04:01:09.285Z,0.00
2022-12-15T04:02:09.384Z,0.00
2022-12-15T04:03:09.393Z,0.00
2022-12-15T04:04:09.176Z,0.00
2022-12-15T04:05:09.183Z,0.00
2022-12-15T04:06:09.150Z,0.00
2022-12-15T04:07:09.155Z,0.00
2022-12-15T04:08:09.131Z,0.00
2022-12-15T04:09:09.129Z,0.00
2022-12-15T04:10:09.108Z,0.00
2022-12-15T04:11:09.097Z,0.00
2022-12-15T04:12:09.086Z,0.00
2022-12-15T04:13:09.088Z,0.00
2022-12-15T04:14:09.067Z,0.00
2022-12-15T04:15:09.061Z,0.00
2022-12-15T04:16:09.043Z,0.00
2022-12-15T04:17:09.163Z,0.00
2022-12-15T04:18:09.021Z,0.00
2022-12-15T04:19:09.007Z,0.00
2022-12-15T04:20:09.027Z,0.00
2022-12-15T04:21:08.993Z,0.00
2022-12-15T04:22:11.634Z,0.00
2022-12-15T04:23:09.966Z,0.00
2022-12-15T04:24:08.964Z,0.00
2022-12-15T04:25:08.956Z,0.00
2022-12-15T04:26:08.947Z,0.00
2022-12-15T04:27:08.923Z,0.00
2022-12-15T04:28:08.919Z,0.00
2022-12-15T04:29:08.903Z,0.00
2022-12-15T04:30:08.913Z,0.00
2022-12-15T04:31:08.949Z,0.00
2022-12-15T04:32:08.880Z,0.00
2022-12-15T04:33:08.882Z,0.00
2022-12-15T04:34:08.854Z,0.00
2022-12-15T04:35:08.851Z,0.00
2022-12-15T04:36:08.835Z,0.00
2022-12-15T04:37:08.815Z,0.00
2022-12-15T04:38:08.809Z,0.00
2022-12-15T04:39:08.805Z,0.00
2022-12-15T04:40:08.816Z,0.00
2022-12-15T04:41:08.777Z,0.00
2022-12-15T04:42:08.769Z,0.00
2022-12-15T04:43:08.754Z,0.00
2022-12-15T04:44:08.745Z,0.00
2022-12-15T04:45:08.758Z,0.00
2022-12-15T04:46:08.804Z,0.00
2022-12-15T04:47:08.711Z,0.00
2022-12-15T04:48:08.703Z,0.00
2022-12-15T04:49:08.712Z,0.00
2022-12-15T04:50:08.680Z,0.00
2022-12-15T04:51:08.683Z,0.00
2022-12-15T04:52:08.659Z,0.00
2022-12-15T04:53:08.647Z,0.00
2022-12-15T04:54:08.634Z,0.00
2022-12-15T04:55:08.625Z,0.00
2022-12-15T04:56:11.431Z,0.00
2022-12-15T04:57:08.616Z,0.00
2022-12-15T04:58:08.596Z,0.00
2022-12-15T04:59:08.581Z,0.00
2022-12-15T05:00:08.572Z,0.00
2022-12-15T05:01:08.645Z,0.00
2022-12-15T05:02:08.767Z,0.00
2022-12-15T05:03:11.319Z,0.00
2022-12-15T05:04:09.547Z,0.00
2022-12-15T05:05:08.630Z,0.00
2022-12-15T05:06:08.509Z,0.00
2022-12-15T05:07:08.495Z,0.00
2022-12-15T05:08:08.509Z,0.00
2022-12-15T05:09:08.471Z,0.00
2022-12-15T05:10:14.729Z,0.00
2022-12-15T05:11:09.451Z,0.00
2022-12-15T05:12:08.442Z,0.00
2022-12-15T05:13:08.426Z,0.00
2022-12-15T05:14:08.432Z,0.00
2022-12-15T05:15:08.410Z,0.00
2022-12-15T05:16:08.590Z,0.00
2022-12-15T05:17:08.440Z,0.00
2022-12-15T05:18:08.374Z,0.00
2022-12-15T05:19:08.366Z,0.00
2022-12-15T05:20:08.352Z,0.00
2022-12-15T05:21:08.377Z,0.00
2022-12-15T05:22:08.332Z,0.00
2022-12-15T05:23:08.322Z,0.00
2022-12-15T05:24:08.312Z,0.00
2022-12-15T05:25:08.304Z,0.00
2022-12-15T05:26:08.304Z,0.00
2022-12-15T05:27:08.282Z,0.00
2022-12-15T05:28:08.287Z,0.00
2022-12-15T05:29:08.256Z,0.00
2022-12-15T05:30:08.254Z,0.00
2022-12-15T05:31:08.302Z,0.00
2022-12-15T05:32:08.234Z,0.00
2022-12-15T05:33:08.240Z,0.00
2022-12-15T05:34:08.201Z,0.00
2022-12-15T05:35:08.193Z,0.00
2022-12-15T05:36:08.193Z,0.00
2022-12-15T05:37:08.297Z,0.00
2022-12-15T05:38:08.178Z,0.00
2022-12-15T05:39:08.153Z,0.00
2022-12-15T05:40:08.147Z,0.00
2022-12-15T05:41:08.133Z,0.00
2022-12-15T05:42:08.127Z,0.00
2022-12-15T05:43:08.107Z,0.00
2022-12-15T05:44:08.099Z,0.00
2022-12-15T05:45:08.101Z,0.00
2022-12-15T05:46:08.124Z,0.00
2022-12-15T05:47:08.084Z,0.00
2022-12-15T05:48:08.058Z,0.00
2022-12-15T05:49:08.046Z,0.00
2022-12-15T05:50:08.032Z,0.00
2022-12-15T05:51:08.032Z,0.00
2022-12-15T05:52:08.017Z,0.00
2022-12-15T05:53:08.028Z,0.00
2022-12-15T05:54:07.994Z,0.00
2022-12-15T05:55:07.981Z,0.00
2022-12-15T05:56:07.968Z,0.00
2022-12-15T05:57:07.978Z,0.00
2022-12-15T05:58:07.956Z,0.00
2022-12-15T05:59:07.938Z,0.00
2022-12-15T06:00:07.923Z,0.00
2022-12-15T06:01:07.914Z,0.00
2022-12-15T06:02:07.959Z,0.00
2022-12-15T06:03:07.961Z,0.00
2022-12-15T06:04:07.883Z,0.00
2022-12-15T06:05:07.937Z,0.00
2022-12-15T06:06:07.859Z,0.00
2022-12-15T06:07:07.864Z,0.00
2022-12-15T06:08:07.840Z,0.00
2022-12-15T06:09:07.852Z,0.00
2022-12-15T06:10:07.817Z,0.00
2022-12-15T06:11:07.824Z,0.00
2022-12-15T06:12:07.803Z,0.00
2022-12-15T06:13:07.797Z,0.00
2022-12-15T06:14:07.777Z,0.00
2022-12-15T06:15:07.781Z,0.00
2022-12-15T06:16:07.847Z,0.00
2022-12-15T06:17:07.761Z,0.00
2022-12-15T06:18:07.738Z,0.00
2022-12-15T06:19:07.734Z,0.00
2022-12-15T06:20:07.720Z,0.00
2022-12-15T06:21:07.699Z,0.00
2022-12-15T06:22:07.690Z,0.00
2022-12-15T06:23:07.702Z,0.00
2022-12-15T06:24:07.659Z,0.00
2022-12-15T06:25:07.772Z,0.00
2022-12-15T06:26:07.654Z,0.00
2022-12-15T06:27:07.634Z,0.00
2022-12-15T06:28:07.639Z,0.00
2022-12-15T06:29:07.611Z,0.00
2022-12-15T06:30:07.600Z,0.00
2022-12-15T06:31:07.657Z,0.00
2022-12-15T06:32:07.579Z,0.00
2022-12-15T06:33:07.573Z,0.00
2022-12-15T06:34:07.567Z,0.00
2022-12-15T06:35:07.550Z,0.00
2022-12-15T06:36:07.536Z,0.00
2022-12-15T06:37:07.536Z,0.00
2022-12-15T06:38:07.532Z,0.00
2022-12-15T06:39:07.543Z,0.00
2022-12-15T06:40:07.497Z,0.00
2022-12-15T06:41:07.509Z,0.00
2022-12-15T06:42:07.480Z,0.00
2022-12-15T06:43:07.489Z,0.00
2022-12-15T06:44:07.449Z,0.00
2022-12-15T06:45:07.446Z,0.00
2022-12-15T06:46:07.577Z,0.00
2022-12-15T06:47:07.514Z,0.00
2022-12-15T06:48:07.416Z,0.00
2022-12-15T06:49:07.410Z,0.00
2022-12-15T06:50:07.391Z,0.00
2022-12-15T06:51:13.307Z,0.00
2022-12-15T06:52:07.367Z,0.00
2022-12-15T06:53:07.376Z,4.00
2022-12-15T06:54:07.345Z,4.00
2022-12-15T06:55:07.389Z,0.00
2022-12-15T06:56:07.325Z,4.00
2022-12-15T06:57:07.339Z,4.00
2022-12-15T06:58:07.302Z,0.00
2022-12-15T06:59:07.300Z,4.00
2022-12-15T07:00:07.291Z,4.00
2022-12-15T07:01:07.279Z,4.00
2022-12-15T07:02:07.483Z,4.00
2022-12-15T07:03:07.558Z,8.00
2022-12-15T07:04:07.394Z,8.00
2022-12-15T07:05:07.232Z,8.00
2022-12-15T07:06:07.232Z,8.00
2022-12-15T07:07:07.211Z,12.00
2022-12-15T07:08:07.192Z,12.00
2022-12-15T07:09:07.272Z,8.00
2022-12-15T07:10:07.180Z,12.00
2022-12-15T07:11:07.166Z,16.00
2022-12-15T07:12:07.170Z,16.00
2022-12-15T07:13:07.163Z,16.00
2022-12-15T07:14:07.127Z,20.00
2022-12-15T07:15:07.135Z,28.00
2022-12-15T07:16:07.204Z,24.00
2022-12-15T07:17:07.114Z,28.00
2022-12-15T07:18:07.098Z,36.00
2022-12-15T07:19:07.090Z,40.00
2022-12-15T07:20:07.074Z,32.00
2022-12-15T07:21:07.058Z,44.00
2022-12-15T07:22:07.045Z,52.00
2022-12-15T07:23:07.049Z,52.00
2022-12-15T07:24:07.742Z,52.00
2022-12-15T07:25:07.034Z,60.00
2022-12-15T07:26:11.450Z,72.00
2022-12-15T07:27:06.992Z,68.00
2022-12-15T07:28:06.981Z,72.00
2022-12-15T07:29:06.995Z,84.00
2022-12-15T07:30:06.983Z,92.00
2022-12-15T07:31:07.017Z,88.00
2022-12-15T07:32:06.994Z,100.00
2022-12-15T07:33:06.927Z,120.00
2022-12-15T07:34:06.914Z,116.00
2022-12-15T07:35:06.909Z,112.00
2022-12-15T07:36:06.913Z,128.00
2022-12-15T07:37:06.902Z,148.00
2022-12-15T07:38:06.872Z,140.00
2022-12-15T07:39:06.864Z,144.00
2022-12-15T07:40:06.853Z,168.00
2022-12-15T07:41:06.921Z,180.00
2022-12-15T07:42:06.840Z,168.00
2022-12-15T07:43:06.853Z,184.00
2022-12-15T07:44:06.806Z,224.00
2022-12-15T07:45:06.819Z,220.00
2022-12-15T07:46:06.856Z,204.00
2022-12-15T07:47:06.790Z,236.00
2022-12-15T07:48:06.780Z,272.00
2022-12-15T07:49:06.794Z,260.00
2022-12-15T07:50:06.750Z,248.00
2022-12-15T07:51:11.055Z,296.00
2022-12-15T07:52:07.751Z,324.00
2022-12-15T07:53:06.713Z,312.00
2022-12-15T07:54:06.702Z,308.00
2022-12-15T07:55:06.693Z,356.00
2022-12-15T07:56:08.395Z,376.00
2022-12-15T07:57:06.675Z,372.00
2022-12-15T07:58:06.690Z,364.00
2022-12-15T07:59:06.657Z,440.00
2022-12-15T08:00:06.659Z,432.00
2022-12-15T08:01:06.986Z,416.00
2022-12-15T08:02:06.845Z,456.00
2022-12-15T08:03:06.756Z,504.00
2022-12-15T08:04:06.653Z,504.00
2022-12-15T08:05:06.598Z,488.00
2022-12-15T08:06:06.580Z,496.00
2022-12-15T08:07:06.564Z,568.00
2022-12-15T08:08:10.853Z,580.00
2022-12-15T08:09:07.567Z,552.00
2022-12-15T08:10:06.532Z,540.00
2022-12-15T08:11:06.522Z,644.00
2022-12-15T08:12:06.523Z,644.00
2022-12-15T08:13:06.503Z,624.00
2022-12-15T08:14:10.546Z,624.00
2022-12-15T08:15:07.494Z,728.00
2022-12-15T08:16:06.507Z,720.00
2022-12-15T08:17:06.554Z,736.00
2022-12-15T08:18:06.477Z,740.00
2022-12-15T08:19:06.479Z,824.00
2022-12-15T08:20:09.931Z,816.00
2022-12-15T08:21:06.424Z,820.00
2022-12-15T08:22:06.414Z,812.00
2022-12-15T08:23:06.442Z,968.00
2022-12-15T08:24:06.389Z,1004.00
2022-12-15T08:25:06.373Z,1068.00
2022-12-15T08:26:06.378Z,1192.00
2022-12-15T08:27:06.351Z,1412.00
2022-12-15T08:28:06.355Z,8228.00
2022-12-15T08:30:07.325Z,11840.00
2022-12-15T08:31:06.310Z,20160.00
2022-12-15T08:32:06.420Z,20288.00
2022-12-15T08:33:06.313Z,17504.00
2022-12-15T08:34:06.284Z,22848.00
2022-12-15T08:35:19.943Z,22272.00
2022-12-15T08:36:07.263Z,21056.00
2022-12-15T08:37:06.247Z,23872.00
2022-12-15T08:38:06.228Z,28000.00
2022-12-15T08:39:06.233Z,27552.00
2022-12-15T08:40:06.208Z,29152.00
2022-12-15T08:41:06.199Z,26432.00
2022-12-15T08:42:06.192Z,30848.00
2022-12-15T08:43:06.179Z,30880.00
2022-12-15T08:44:06.192Z,36448.00
2022-12-15T08:45:06.163Z,34816.00
2022-12-15T08:46:06.198Z,38720.00
2022-12-15T08:47:06.176Z,32288.00
2022-12-15T08:48:06.122Z,40736.00
2022-12-15T08:49:06.233Z,34432.00
2022-12-15T08:50:06.114Z,36704.00
2022-12-15T08:51:06.096Z,38112.00
2022-12-15T08:52:06.159Z,35904.00
2022-12-15T08:53:30.338Z,36736.00
2022-12-15T08:54:07.070Z,35264.00
2022-12-15T08:55:06.080Z,43424.00
2022-12-15T08:56:06.047Z,34496.00
2022-12-15T08:57:06.022Z,35648.00
2022-12-15T08:58:06.012Z,47616.00
2022-12-15T08:59:06.019Z,30816.00
2022-12-15T09:00:05.987Z,42688.00
2022-12-15T09:01:06.060Z,43744.00
2022-12-15T09:02:06.143Z,39712.00
2022-12-15T09:03:05.956Z,44448.00
2022-12-15T09:04:05.995Z,34816.00
2022-12-15T09:05:05.973Z,47296.00
2022-12-15T09:06:05.927Z,43104.00
2022-12-15T09:07:05.935Z,45536.00
2022-12-15T09:08:06.841Z,43008.00
2022-12-15T09:09:05.907Z,45632.00
2022-12-15T09:10:05.884Z,45632.00
2022-12-15T09:11:05.881Z,46208.00
2022-12-15T09:12:05.854Z,47296.00
2022-12-15T09:13:05.847Z,47424.00
2022-12-15T09:14:05.835Z,53216.00
2022-12-15T09:15:05.826Z,45152.00
2022-12-15T09:16:10.703Z,44608.00
2022-12-15T09:17:06.865Z,52064.00
2022-12-15T09:18:05.868Z,50720.00
2022-12-15T09:19:05.807Z,37952.00
2022-12-15T09:20:05.761Z,40384.00
2022-12-15T09:21:05.789Z,49248.00
2022-12-15T09:22:05.748Z,51360.00
2022-12-15T09:23:05.781Z,47520.00
2022-12-15T09:24:05.732Z,44256.00
2022-12-15T09:25:05.719Z,48608.00
2022-12-15T09:26:05.707Z,54976.00
2022-12-15T09:27:05.697Z,53792.00
2022-12-15T09:28:05.675Z,46016.00
2022-12-15T09:29:05.693Z,46304.00
2022-12-15T09:30:05.659Z,50144.00
2022-12-15T09:31:05.715Z,53120.00
2022-12-15T09:32:10.643Z,49280.00
2022-12-15T09:33:06.634Z,48480.00
2022-12-15T09:34:05.612Z,54464.00
2022-12-15T09:35:05.609Z,58304.00
2022-12-15T09:36:05.640Z,57824.00
2022-12-15T09:37:06.028Z,56064.00
2022-12-15T09:38:05.576Z,55328.00
2022-12-15T09:39:05.552Z,57760.00
2022-12-15T09:40:05.569Z,54752.00
2022-12-15T09:41:05.556Z,31904.00
2022-12-15T09:42:05.530Z,24544.00
2022-12-15T09:43:33.452Z,13236.00
2022-12-15T09:44:06.522Z,3036.00
2022-12-15T09:45:05.512Z,2388.00
2022-12-15T09:46:05.542Z,2072.00
2022-12-15T09:47:05.474Z,2156.00
2022-12-15T09:48:05.475Z,2108.00
2022-12-15T09:49:05.448Z,2052.00
2022-12-15T09:50:05.435Z,2092.00
2022-12-15T09:51:05.477Z,2100.00
2022-12-15T09:52:10.716Z,1964.00
2022-12-15T09:53:23.148Z,1944.00
2022-12-15T09:54:06.913Z,1972.00
2022-12-15T09:55:05.438Z,1908.00
2022-12-15T09:56:05.387Z,1748.00
2022-12-15T09:57:05.365Z,1708.00
2022-12-15T09:58:10.782Z,1768.00
2022-12-15T09:59:06.338Z,1720.00
2022-12-15T10:00:05.327Z,1680.00
2022-12-15T10:01:05.342Z,1588.00
2022-12-15T10:02:05.524Z,1544.00
2022-12-15T10:03:05.386Z,1536.00
2022-12-15T10:04:05.376Z,1528.00
2022-12-15T10:05:05.271Z,1532.00
2022-12-15T10:06:16.033Z,1528.00
2022-12-15T10:07:06.275Z,1548.00
2022-12-15T10:08:05.239Z,1552.00
2022-12-15T10:09:05.250Z,1556.00
2022-12-15T10:10:05.216Z,1560.00
2022-12-15T10:11:05.205Z,1572.00
2022-12-15T10:12:05.199Z,1568.00
2022-12-15T10:13:05.282Z,1564.00
2022-12-15T10:14:05.173Z,1560.00
2022-12-15T10:15:05.156Z,1560.00
2022-12-15T10:16:05.253Z,1540.00
2022-12-15T10:17:05.164Z,1528.00
2022-12-15T10:18:05.128Z,1528.00
2022-12-15T10:19:05.115Z,1516.00
2022-12-15T10:20:05.118Z,1508.00
2022-12-15T10:21:05.097Z,1496.00
2022-12-15T10:22:05.104Z,1484.00
2022-12-15T10:23:05.114Z,1468.00
2022-12-15T10:24:05.113Z,1460.00
2022-12-15T10:26:06.040Z,1432.00
2022-12-15T10:27:05.041Z,1436.00
2022-12-15T10:28:05.023Z,1448.00
2022-12-15T10:29:05.049Z,1444.00
2022-12-15T10:30:05.080Z,1452.00
2022-12-15T10:31:05.131Z,1476.00
2022-12-15T10:32:04.991Z,1480.00
2022-12-15T10:33:04.970Z,1524.00
2022-12-15T10:34:04.960Z,1520.00
2022-12-15T10:35:05.027Z,1580.00
2022-12-15T10:36:04.939Z,1592.00
2022-12-15T10:37:04.950Z,1596.00
2022-12-15T10:38:04.919Z,1596.00
2022-12-15T10:39:04.903Z,1600.00
2022-12-15T10:40:04.897Z,1604.00
2022-12-15T10:41:04.908Z,1604.00
2022-12-15T10:42:04.873Z,1608.00
2022-12-15T10:43:04.865Z,1608.00
2022-12-15T10:44:04.887Z,1600.00
2022-12-15T10:45:04.834Z,1592.00
2022-12-15T10:46:04.989Z,1580.00
2022-12-15T10:47:04.819Z,1572.00
2022-12-15T10:48:04.812Z,1564.00
2022-12-15T10:49:04.805Z,1560.00
2022-12-15T10:50:04.783Z,1544.00
2022-12-15T10:51:04.771Z,1532.00
2022-12-15T10:52:04.763Z,1512.00
2022-12-15T10:53:04.755Z,1504.00
2022-12-15T10:54:04.777Z,1488.00
2022-12-15T10:55:04.798Z,1476.00
2022-12-15T10:56:04.748Z,1480.00
2022-12-15T10:57:04.733Z,1480.00
2022-12-15T10:58:04.697Z,1504.00
2022-12-15T10:59:04.727Z,1440.00
2022-12-15T11:00:04.691Z,1432.00
2022-12-15T11:01:04.744Z,1432.00
2022-12-15T11:02:04.835Z,1440.00
2022-12-15T11:03:04.891Z,1448.00
2022-12-15T11:04:04.796Z,1448.00
2022-12-15T11:05:04.630Z,1448.00
2022-12-15T11:06:04.612Z,1452.00
2022-12-15T11:07:04.600Z,1444.00
2022-12-15T11:08:07.793Z,1440.00
2022-12-15T11:09:05.591Z,1464.00
2022-12-15T11:10:04.577Z,1500.00
2022-12-15T11:11:07.660Z,1508.00
2022-12-15T11:12:04.547Z,1508.00
2022-12-15T11:13:04.563Z,1512.00
2022-12-15T11:14:04.531Z,1500.00
2022-12-15T11:15:04.533Z,1512.00
2022-12-15T11:16:04.507Z,1484.00
2022-12-15T11:17:04.500Z,1504.00
2022-12-15T11:18:04.491Z,1492.00
2022-12-15T11:19:04.472Z,1472.00
2022-12-15T11:20:04.474Z,1460.00
2022-12-15T11:21:04.445Z,1492.00
2022-12-15T11:22:04.440Z,1512.00
2022-12-15T11:23:04.442Z,1548.00
2022-12-15T11:24:04.415Z,1548.00
2022-12-15T11:25:04.419Z,1544.00
2022-12-15T11:26:07.250Z,1524.00
2022-12-15T11:27:04.391Z,1516.00
2022-12-15T11:28:04.379Z,1500.00
2022-12-15T11:29:04.383Z,1508.00
2022-12-15T11:30:04.356Z,1492.00
2022-12-15T11:31:04.341Z,1488.00
2022-12-15T11:32:07.286Z,1472.00
2022-12-15T11:33:04.320Z,1460.00
2022-12-15T11:34:04.317Z,1432.00
2022-12-15T11:35:04.297Z,1424.00
2022-12-15T11:36:04.298Z,1412.00
2022-12-15T11:37:04.306Z,1416.00
2022-12-15T11:38:04.271Z,1408.00
2022-12-15T11:39:04.344Z,1404.00
2022-12-15T11:40:04.258Z,1400.00
2022-12-15T11:41:04.228Z,1388.00
2022-12-15T11:42:04.228Z,1376.00
2022-12-15T11:43:04.214Z,1364.00
2022-12-15T11:44:06.449Z,1348.00
2022-12-15T11:45:04.211Z,1340.00
2022-12-15T11:46:04.190Z,1340.00
2022-12-15T11:47:04.189Z,1348.00
2022-12-15T11:48:04.168Z,1352.00
2022-12-15T11:49:04.141Z,1380.00
2022-12-15T11:50:04.135Z,1408.00
2022-12-15T11:51:04.121Z,1416.00
2022-12-15T11:52:04.121Z,1428.00
2022-12-15T11:53:04.113Z,1448.00
2022-12-15T11:54:04.087Z,1468.00
2022-12-15T11:55:04.079Z,1480.00
2022-12-15T11:56:04.071Z,1488.00
2022-12-15T11:57:04.086Z,1500.00
2022-12-15T11:58:04.055Z,1504.00
2022-12-15T11:59:04.035Z,1536.00
2022-12-15T12:00:04.023Z,1492.00
2022-12-15T12:01:04.076Z,1480.00
2022-12-15T12:02:04.109Z,1516.00
2022-12-15T12:03:04.089Z,1484.00
2022-12-15T12:04:03.992Z,1516.00
2022-12-15T12:05:03.987Z,1512.00
2022-12-15T12:06:03.961Z,1488.00
2022-12-15T12:07:03.961Z,1484.00
2022-12-15T12:08:03.941Z,1436.00
2022-12-15T12:09:03.930Z,1416.00
2022-12-15T12:10:03.921Z,1408.00
2022-12-15T12:11:03.976Z,1404.00
2022-12-15T12:12:03.912Z,1404.00
2022-12-15T12:13:03.883Z,1400.00
2022-12-15T12:14:08.089Z,1396.00
2022-12-15T12:15:04.856Z,1404.00
2022-12-15T12:16:03.848Z,1388.00
2022-12-15T12:17:03.872Z,1380.00
2022-12-15T12:18:03.833Z,1316.00
2022-12-15T12:19:03.877Z,1312.00
2022-12-15T12:20:09.469Z,1292.00
2022-12-15T12:21:04.807Z,1248.00
2022-12-15T12:22:03.789Z,1176.00
2022-12-15T12:23:03.788Z,1172.00
2022-12-15T12:24:03.765Z,1164.00
2022-12-15T12:25:03.774Z,1172.00
2022-12-15T12:26:03.821Z,1172.00
2022-12-15T12:27:03.730Z,1152.00
2022-12-15T12:28:03.757Z,1176.00
2022-12-15T12:29:03.751Z,1164.00
2022-12-15T12:30:03.698Z,1176.00
2022-12-15T12:31:03.684Z,1160.00
2022-12-15T12:33:04.691Z,1128.00
2022-12-15T12:34:03.667Z,1080.00
2022-12-15T12:35:31.460Z,1032.00
2022-12-15T12:36:04.630Z,992.00
2022-12-15T12:37:03.616Z,984.00
2022-12-15T12:38:04.413Z,984.00
2022-12-15T12:39:03.631Z,1000.00
2022-12-15T12:40:03.602Z,992.00
2022-12-15T12:41:03.580Z,1008.00
2022-12-15T12:42:03.573Z,1012.00
2022-12-15T12:43:06.217Z,1020.00
2022-12-15T12:44:04.547Z,1008.00
2022-12-15T12:45:03.562Z,1012.00
2022-12-15T12:46:03.535Z,1000.00
2022-12-15T12:47:03.516Z,988.00
2022-12-15T12:48:03.499Z,964.00